createdAt,value
2022-08-08T00:02:03.035Z,18.97
2022-08-08T00:04:34.787Z,18.96
2022-08-08T00:07:33.650Z,18.85
2022-08-08T00:10:11.750Z,18.51
2022-08-08T00:12:56.203Z,18.55
2022-08-08T00:15:57.036Z,18.50
2022-08-08T00:18:26.815Z,18.49
2022-08-08T00:20:58.999Z,18.60
2022-08-08T00:23:51.146Z,18.61
2022-08-08T00:26:29.516Z,18.67
2022-08-08T00:29:11.464Z,18.57
2022-08-08T00:32:28.438Z,18.40
2022-08-08T00:35:20.708Z,18.45
2022-08-08T00:38:32.379Z,18.46
2022-08-08T00:41:22.176Z,18.48
2022-08-08T00:44:11.122Z,18.54
2022-08-08T00:47:24.011Z,18.49
2022-08-08T00:49:59.074Z,18.37
2022-08-08T00:52:57.271Z,18.34
2022-08-08T00:55:53.445Z,18.28
2022-08-08T00:58:20.023Z,18.25
2022-08-08T01:01:12.240Z,18.29
2022-08-08T01:04:09.638Z,18.29
2022-08-08T01:07:08.887Z,18.32
2022-08-08T01:10:14.585Z,18.15
2022-08-08T01:12:56.600Z,18.14
2022-08-08T01:16:16.925Z,18.13
2022-08-08T01:18:55.962Z,18.18
2022-08-08T01:22:11.869Z,17.91
2022-08-08T01:24:50.728Z,17.98
2022-08-08T01:27:46.390Z,18.09
2022-08-08T01:31:06.103Z,18.08
2022-08-08T01:34:23.634Z,18.04
2022-08-08T01:37:13.785Z,17.83
2022-08-08T01:39:44.653Z,17.88
2022-08-08T01:42:36.532Z,17.84
2022-08-08T01:45:29.090Z,17.69
2022-08-08T01:48:31.121Z,17.56
2022-08-08T01:51:29.778Z,17.57
2022-08-08T01:55:45.569Z,17.57
2022-08-08T01:58:04.536Z,17.72
2022-08-08T02:00:48.521Z,17.81
2022-08-08T02:03:55.148Z,17.62
2022-08-08T02:06:43.535Z,17.29
2022-08-08T02:10:01.478Z,17.12
2022-08-08T02:12:32.247Z,17.05
2022-08-08T02:15:11.182Z,17.25
2022-08-08T02:18:00.073Z,17.25
2022-08-08T02:21:03.049Z,16.95
2022-08-08T02:23:32.296Z,16.79
2022-08-08T02:26:16.108Z,17.02
2022-08-08T02:29:14.884Z,17.07
2022-08-08T02:32:22.770Z,17.25
2022-08-08T02:35:08.254Z,17.13
2022-08-08T02:38:09.248Z,16.92
2022-08-08T02:41:18.017Z,16.92
2022-08-08T02:44:39.378Z,16.86
2022-08-08T02:47:01.669Z,16.95
2022-08-08T02:49:56.611Z,16.98
2022-08-08T02:52:51.413Z,16.90
2022-08-08T02:55:37.211Z,16.95
2022-08-08T02:58:10.747Z,16.92
2022-08-08T03:01:05.337Z,16.92
2022-08-08T03:05:03.952Z,16.89
2022-08-08T03:07:58.170Z,17.07
2022-08-08T03:10:36.993Z,17.17
2022-08-08T03:15:53.464Z,16.90
2022-08-08T03:16:35.425Z,16.86
2022-08-08T03:19:34.538Z,16.86
2022-08-08T03:22:04.979Z,17.03
2022-08-08T03:24:57.024Z,17.00
2022-08-08T03:27:42.022Z,16.93
2022-08-08T03:30:18.995Z,16.92
2022-08-08T03:33:55.699Z,16.74
2022-08-08T03:35:59.744Z,16.62
2022-08-08T03:38:54.881Z,16.62
2022-08-08T03:42:11.560Z,16.71
2022-08-08T03:44:00.539Z,16.88
2022-08-08T03:46:32.389Z,16.64
2022-08-08T03:49:38.088Z,16.39
2022-08-08T03:51:54.630Z,16.42
2022-08-08T03:54:41.335Z,15.98
2022-08-08T03:58:32.449Z,15.89
2022-08-08T04:00:11.968Z,15.98
2022-08-08T04:03:11.781Z,16.27
2022-08-08T04:05:47.955Z,16.48
2022-08-08T04:08:33.089Z,16.48
2022-08-08T04:11:11.140Z,16.52
2022-08-08T04:14:33.137Z,16.51
2022-08-08T04:16:38.915Z,16.54
2022-08-08T04:19:24.165Z,16.39
2022-08-08T04:21:56.275Z,16.43
2022-08-08T04:24:28.678Z,16.52
2022-08-08T04:26:58.810Z,16.50
2022-08-08T04:29:36.852Z,16.27
2022-08-08T04:32:07.561Z,16.11
2022-08-08T04:34:42.779Z,16.30
2022-08-08T04:37:16.808Z,16.26
2022-08-08T04:40:03.139Z,16.08
2022-08-08T04:42:34.075Z,16.26
2022-08-08T04:45:05.693Z,16.32
2022-08-08T04:47:36.771Z,16.39
2022-08-08T04:50:24.825Z,16.49
2022-08-08T04:53:00.577Z,16.34
2022-08-08T04:55:47.762Z,16.16
2022-08-08T04:58:20.222Z,16.26
2022-08-08T05:00:50.119Z,16.22
2022-08-08T05:04:08.155Z,15.97
2022-08-08T05:06:13.220Z,16.02
2022-08-08T05:08:42.805Z,16.22
2022-08-08T05:11:18.749Z,16.41
2022-08-08T05:13:58.244Z,16.54
2022-08-08T05:16:51.256Z,16.52
2022-08-08T05:20:09.692Z,16.40
2022-08-08T05:22:06.396Z,16.35
2022-08-08T05:24:37.427Z,16.45
2022-08-08T05:27:05.190Z,16.53
2022-08-08T05:29:35.786Z,16.53
2022-08-08T05:32:07.960Z,16.57
2022-08-08T05:34:36.490Z,16.62
2022-08-08T05:37:07.597Z,16.65
2022-08-08T05:39:49.970Z,16.56
2022-08-08T05:42:19.194Z,16.50
2022-08-08T05:44:49.053Z,16.57
2022-08-08T05:47:22.077Z,16.65
2022-08-08T05:49:54.269Z,16.79
2022-08-08T05:52:32.305Z,16.89
2022-08-08T05:55:11.271Z,16.91
2022-08-08T05:58:04.580Z,17.08
2022-08-08T06:00:35.025Z,17.24
2022-08-08T06:03:17.567Z,17.20
2022-08-08T06:06:01.245Z,17.28
2022-08-08T06:08:53.084Z,17.48
2022-08-08T06:11:22.748Z,17.41
2022-08-08T06:13:55.158Z,17.27
2022-08-08T06:16:27.227Z,17.36
2022-08-08T06:19:05.018Z,17.59
2022-08-08T06:21:48.889Z,17.63
2022-08-08T06:24:31.003Z,17.68
2022-08-08T06:27:10.497Z,17.80
2022-08-08T06:30:01.150Z,17.76
2022-08-08T06:32:52.627Z,17.75
2022-08-08T06:36:04.861Z,17.78
2022-08-08T06:38:14.856Z,17.76
2022-08-08T06:40:53.586Z,17.69
2022-08-08T06:43:33.889Z,17.77
2022-08-08T06:46:08.731Z,18.17
2022-08-08T06:48:38.241Z,18.31
2022-08-08T06:51:07.763Z,18.35
2022-08-08T06:53:39.646Z,18.28
2022-08-08T06:56:08.961Z,18.27
2022-08-08T06:58:37.020Z,18.42
2022-08-08T07:01:14.351Z,18.49
2022-08-08T07:04:37.969Z,18.69
2022-08-08T07:06:56.162Z,18.79
2022-08-08T07:09:59.753Z,18.75
2022-08-08T07:12:48.052Z,18.80
2022-08-08T07:16:04.994Z,18.70
2022-08-08T07:19:06.205Z,18.94
2022-08-08T07:21:50.530Z,19.05
2022-08-08T07:24:26.920Z,19.37
2022-08-08T07:26:59.838Z,19.45
2022-08-08T07:30:00.956Z,19.36
2022-08-08T07:32:22.460Z,19.44
2022-08-08T07:35:00.126Z,19.39
2022-08-08T07:37:49.497Z,19.32
2022-08-08T07:40:29.643Z,19.43
2022-08-08T07:43:02.208Z,19.38
2022-08-08T07:45:34.965Z,19.50
2022-08-08T07:48:19.541Z,19.64
2022-08-08T07:50:48.087Z,19.61
2022-08-08T07:54:01.333Z,19.72
2022-08-08T07:56:17.630Z,19.87
2022-08-08T07:59:14.383Z,20.07
2022-08-08T08:02:36.322Z,20.16
2022-08-08T08:04:57.020Z,20.20
2022-08-08T08:07:37.602Z,20.11
2022-08-08T08:10:08.190Z,19.84
2022-08-08T08:12:50.363Z,19.99
2022-08-08T08:15:23.212Z,20.24
2022-08-08T08:17:58.108Z,20.22
2022-08-08T08:20:30.390Z,20.12
2022-08-08T08:22:59.131Z,20.16
2022-08-08T08:25:43.720Z,20.20
2022-08-08T08:28:21.599Z,20.39
2022-08-08T08:30:53.589Z,20.64
2022-08-08T08:33:22.661Z,20.67
2022-08-08T08:36:20.330Z,20.60
2022-08-08T08:38:49.277Z,20.54
2022-08-08T08:41:20.146Z,20.49
2022-08-08T08:43:50.640Z,20.43
2022-08-08T08:46:20.099Z,20.38
2022-08-08T08:48:54.986Z,20.39
2022-08-08T08:51:26.716Z,20.40
2022-08-08T08:54:01.838Z,20.42
2022-08-08T08:56:38.150Z,20.42
2022-08-08T08:59:17.219Z,20.61
2022-08-08T09:01:55.140Z,20.72
2022-08-08T09:04:38.544Z,20.92
2022-08-08T09:07:22.602Z,21.02
2022-08-08T09:09:57.126Z,21.01
2022-08-08T09:12:29.062Z,20.83
2022-08-08T09:14:58.928Z,21.04
2022-08-08T09:17:41.790Z,20.89
2022-08-08T09:22:01.477Z,20.85
2022-08-08T09:23:10.528Z,20.98
2022-08-08T09:25:58.368Z,21.14
2022-08-08T09:28:38.600Z,21.15
2022-08-08T09:31:16.395Z,21.16
2022-08-08T09:34:15.276Z,21.37
2022-08-08T09:37:10.286Z,21.52
2022-08-08T09:39:59.671Z,21.57
2022-08-08T09:42:44.185Z,21.63
2022-08-08T09:46:01.943Z,21.61
2022-08-08T09:48:36.608Z,21.62
2022-08-08T09:51:05.916Z,21.70
2022-08-08T09:53:59.384Z,21.83
2022-08-08T09:56:41.014Z,21.72
2022-08-08T09:59:42.762Z,21.72
2022-08-08T10:02:02.742Z,21.77
2022-08-08T10:04:47.699Z,21.92
2022-08-08T10:07:17.544Z,22.06
2022-08-08T10:10:00.487Z,22.01
2022-08-08T10:12:53.856Z,22.04
2022-08-08T10:15:36.120Z,22.11
2022-08-08T10:18:11.596Z,22.10
2022-08-08T10:20:51.217Z,22.13
2022-08-08T10:23:42.167Z,22.20
2022-08-08T10:26:30.043Z,22.21
2022-08-08T10:29:05.694Z,22.19
2022-08-08T10:31:54.766Z,22.23
2022-08-08T10:34:24.313Z,22.35
2022-08-08T10:36:56.174Z,22.13
2022-08-08T10:39:43.132Z,22.24
2022-08-08T10:42:17.729Z,22.43
2022-08-08T10:44:49.343Z,22.51
2022-08-08T10:47:21.055Z,22.51
2022-08-08T10:50:05.339Z,22.55
2022-08-08T10:52:40.150Z,22.54
2022-08-08T10:55:41.663Z,22.49
2022-08-08T10:58:05.880Z,22.46
2022-08-08T11:00:39.233Z,22.49
2022-08-08T11:03:36.759Z,22.61
2022-08-08T11:06:12.599Z,22.71
2022-08-08T11:08:49.911Z,22.69
2022-08-08T11:11:32.313Z,22.80
2022-08-08T11:14:12.378Z,22.75
2022-08-08T11:16:46.311Z,22.75
2022-08-08T11:19:15.553Z,22.71
2022-08-08T11:21:54.196Z,22.71
2022-08-08T11:24:25.752Z,22.72
2022-08-08T11:26:57.141Z,22.81
2022-08-08T11:29:41.885Z,23.05
2022-08-08T11:32:14.489Z,23.06
2022-08-08T11:35:07.930Z,23.00
2022-08-08T11:38:35.057Z,23.04
2022-08-08T11:40:22.401Z,23.02
2022-08-08T11:42:54.311Z,23.04
2022-08-08T11:45:22.588Z,23.08
2022-08-08T11:48:02.684Z,23.22
2022-08-08T11:50:33.962Z,23.38
2022-08-08T11:53:06.270Z,23.39
2022-08-08T11:55:36.264Z,23.46
2022-08-08T11:58:14.727Z,23.51
2022-08-08T12:00:47.449Z,23.32
2022-08-08T12:03:30.670Z,23.32
2022-08-08T12:05:58.115Z,23.20
2022-08-08T12:08:36.424Z,23.25
2022-08-08T12:11:10.810Z,23.52
2022-08-08T12:14:02.551Z,23.44
2022-08-08T12:16:31.806Z,23.52
2022-08-08T12:19:12.116Z,23.50
2022-08-08T12:22:00.034Z,23.54
2022-08-08T12:24:27.707Z,23.58
2022-08-08T12:26:56.946Z,23.60
2022-08-08T12:29:40.309Z,23.71
2022-08-08T12:32:19.885Z,23.81
2022-08-08T12:35:01.320Z,23.82
2022-08-08T12:37:41.048Z,23.85
2022-08-08T12:40:22.910Z,23.81
2022-08-08T12:42:51.984Z,23.83
2022-08-08T12:45:54.957Z,23.82
2022-08-08T12:48:37.708Z,23.82
2022-08-08T12:51:07.862Z,23.87
2022-08-08T12:53:58.717Z,23.96
2022-08-08T12:56:38.098Z,24.02
2022-08-08T12:59:36.632Z,23.99
2022-08-08T13:02:22.524Z,24.01
2022-08-08T13:04:57.776Z,23.96
2022-08-08T13:08:04.070Z,24.12
2022-08-08T13:10:39.863Z,24.13
2022-08-08T13:13:35.318Z,24.00
2022-08-08T13:16:37.589Z,24.02
2022-08-08T13:19:13.985Z,24.15
2022-08-08T13:21:53.376Z,24.11
2022-08-08T13:24:42.713Z,24.17
2022-08-08T13:27:18.932Z,24.07
2022-08-08T13:29:53.189Z,24.19
2022-08-08T13:32:23.566Z,24.05
2022-08-08T13:34:56.498Z,24.07
2022-08-08T13:37:28.016Z,24.24
2022-08-08T13:40:17.943Z,24.32
2022-08-08T13:42:54.834Z,24.35
2022-08-08T13:45:24.284Z,24.41
2022-08-08T13:48:02.849Z,24.46
2022-08-08T13:50:49.399Z,24.52
2022-08-08T13:53:31.473Z,24.45
2022-08-08T13:56:05.115Z,24.44
2022-08-08T13:58:33.242Z,24.51
2022-08-08T14:01:19.761Z,24.50
2022-08-08T14:03:58.817Z,24.42
2022-08-08T14:06:34.193Z,24.46
2022-08-08T14:09:25.080Z,24.46
2022-08-08T14:11:49.922Z,24.56
2022-08-08T14:14:20.898Z,24.66
2022-08-08T14:16:52.833Z,24.60
2022-08-08T14:19:56.250Z,24.62
2022-08-08T14:22:20.562Z,24.72
2022-08-08T14:25:08.898Z,24.79
2022-08-08T14:27:42.245Z,24.75
2022-08-08T14:30:34.361Z,24.73
2022-08-08T14:33:01.712Z,24.57
2022-08-08T14:35:36.082Z,24.69
2022-08-08T14:38:34.765Z,24.92
2022-08-08T14:40:59.054Z,24.85
2022-08-08T14:44:01.897Z,24.84
2022-08-08T14:46:18.877Z,24.91
2022-08-08T14:49:20.186Z,24.86
2022-08-08T14:51:53.261Z,24.65
2022-08-08T14:54:28.409Z,24.67
2022-08-08T14:56:56.219Z,24.65
2022-08-08T14:59:44.363Z,24.83
2022-08-08T15:02:10.742Z,24.78
2022-08-08T15:04:43.015Z,24.87
2022-08-08T15:07:22.209Z,24.80
2022-08-08T15:09:50.037Z,24.71
2022-08-08T15:12:27.318Z,24.81
2022-08-08T15:15:01.520Z,24.80
2022-08-08T15:17:33.784Z,24.78
2022-08-08T15:20:06.102Z,24.90
2022-08-08T15:22:35.640Z,24.95
2022-08-08T15:25:08.816Z,24.92
2022-08-08T15:28:04.585Z,25.00
2022-08-08T15:30:31.806Z,24.79
2022-08-08T15:32:59.371Z,25.01
2022-08-08T15:35:27.213Z,25.03
2022-08-08T15:37:56.683Z,25.13
2022-08-08T15:40:23.295Z,25.06
2022-08-08T15:42:55.733Z,25.01
2022-08-08T15:45:22.820Z,24.89
2022-08-08T15:48:10.990Z,24.94
2022-08-08T15:50:56.324Z,25.14
2022-08-08T15:53:27.473Z,25.12
2022-08-08T15:56:00.016Z,24.97
2022-08-08T15:58:28.297Z,24.99
2022-08-08T16:00:58.581Z,24.98
2022-08-08T16:03:25.283Z,25.11
2022-08-08T16:06:00.869Z,25.00
2022-08-08T16:08:28.390Z,24.93
2022-08-08T16:13:12.265Z,24.93
2022-08-08T16:13:43.884Z,25.10
2022-08-08T16:16:17.844Z,25.08
2022-08-08T16:18:56.958Z,25.10
2022-08-08T16:21:30.620Z,25.18
2022-08-08T16:24:00.563Z,25.23
2022-08-08T16:26:33.795Z,25.22
2022-08-08T16:29:15.536Z,25.18
2022-08-08T16:31:49.220Z,25.14
2022-08-08T16:34:21.236Z,25.21
2022-08-08T16:36:52.079Z,25.39
2022-08-08T16:39:59.554Z,25.43
2022-08-08T16:42:13.832Z,25.49
2022-08-08T16:44:54.020Z,25.47
2022-08-08T16:47:39.950Z,25.53
2022-08-08T16:50:15.815Z,25.76
2022-08-08T16:55:03.023Z,25.79
2022-08-08T16:55:54.269Z,25.83
2022-08-08T16:58:25.598Z,25.66
2022-08-08T17:00:54.294Z,25.37
2022-08-08T17:03:25.250Z,25.41
2022-08-08T17:06:36.209Z,25.63
2022-08-08T17:08:56.987Z,25.80
2022-08-08T17:11:28.310Z,25.82
2022-08-08T17:14:18.085Z,25.61
2022-08-08T17:16:57.525Z,25.69
2022-08-08T17:19:27.216Z,25.76
2022-08-08T17:21:54.451Z,25.72
2022-08-08T17:24:27.952Z,25.66
2022-08-08T17:26:58.926Z,25.67
2022-08-08T17:29:27.247Z,25.75
2022-08-08T17:31:55.206Z,25.61
2022-08-08T17:34:49.709Z,25.68
2022-08-08T17:37:13.681Z,25.82
2022-08-08T17:40:03.439Z,25.73
2022-08-08T17:42:27.765Z,25.73
2022-08-08T17:44:54.637Z,25.69
2022-08-08T17:47:23.858Z,25.81
2022-08-08T17:49:52.988Z,25.77
2022-08-08T17:52:28.141Z,25.87
2022-08-08T17:54:56.394Z,25.93
2022-08-08T17:57:23.773Z,25.98
2022-08-08T17:59:51.877Z,25.91
2022-08-08T18:02:28.496Z,25.85
2022-08-08T18:04:57.966Z,25.66
2022-08-08T18:08:02.455Z,25.60
2022-08-08T18:10:11.519Z,25.56
2022-08-08T18:12:38.123Z,25.60
2022-08-08T18:15:07.350Z,25.51
2022-08-08T18:18:08.951Z,25.49
2022-08-08T18:20:43.111Z,25.38
2022-08-08T18:23:14.560Z,25.42
2022-08-08T18:25:43.052Z,25.50
2022-08-08T18:28:13.466Z,25.34
2022-08-08T18:30:42.669Z,25.40
2022-08-08T18:33:36.611Z,25.28
2022-08-08T18:36:03.166Z,25.29
2022-08-08T18:38:31.202Z,25.23
2022-08-08T18:40:59.227Z,25.20
2022-08-08T18:43:38.014Z,24.93
2022-08-08T18:46:57.263Z,24.71
2022-08-08T18:48:58.034Z,24.45
2022-08-08T18:51:54.138Z,24.57
2022-08-08T18:54:22.763Z,24.34
2022-08-08T18:56:56.980Z,24.26
2022-08-08T18:59:24.106Z,24.11
2022-08-08T19:02:25.917Z,24.20
2022-08-08T19:04:38.115Z,24.10
2022-08-08T19:07:05.267Z,24.06
2022-08-08T19:09:48.918Z,24.10
2022-08-08T19:12:19.326Z,23.97
2022-08-08T19:14:53.086Z,23.97
2022-08-08T19:17:29.607Z,23.93
2022-08-08T19:20:06.921Z,23.89
2022-08-08T19:22:36.160Z,23.86
2022-08-08T19:26:02.516Z,23.81
2022-08-08T19:27:57.226Z,23.78
2022-08-08T19:30:26.856Z,23.73
2022-08-08T19:32:58.222Z,23.64
2022-08-08T19:35:44.355Z,23.55
2022-08-08T19:38:17.467Z,23.39
2022-08-08T19:40:54.373Z,23.30
2022-08-08T19:43:28.031Z,23.08
2022-08-08T19:45:59.060Z,23.21
2022-08-08T19:48:29.084Z,23.26
2022-08-08T19:50:59.294Z,23.09
2022-08-08T19:53:51.928Z,23.09
2022-08-08T19:56:16.463Z,23.07
2022-08-08T19:58:53.052Z,23.02
2022-08-08T20:01:31.613Z,22.91
2022-08-08T20:04:09.150Z,22.80
2022-08-08T20:06:36.259Z,22.45
2022-08-08T20:09:08.623Z,22.30
2022-08-08T20:11:43.245Z,22.16
2022-08-08T20:14:32.644Z,22.07
2022-08-08T20:16:59.575Z,22.00
2022-08-08T20:19:26.694Z,21.84
2022-08-08T20:22:04.955Z,21.59
2022-08-08T20:24:39.593Z,21.97
2022-08-08T20:27:09.215Z,22.25
2022-08-08T20:29:56.101Z,22.17
2022-08-08T20:32:26.723Z,21.88
2022-08-08T20:35:01.431Z,21.97
2022-08-08T20:37:47.043Z,21.89
2022-08-08T20:40:17.052Z,21.86
2022-08-08T20:42:55.210Z,21.90
2022-08-08T20:45:54.679Z,22.02
2022-08-08T20:48:09.470Z,22.14
2022-08-08T20:50:36.150Z,22.00
2022-08-08T20:53:04.106Z,21.70
2022-08-08T20:55:42.859Z,21.63
2022-08-08T20:58:13.682Z,21.50
2022-08-08T21:00:47.014Z,21.74
2022-08-08T21:03:17.101Z,21.50
2022-08-08T21:05:58.577Z,21.72
2022-08-08T21:08:36.462Z,21.52
2022-08-08T21:11:12.753Z,21.56
2022-08-08T21:13:41.867Z,21.62
2022-08-08T21:16:17.995Z,21.70
2022-08-08T21:18:57.102Z,21.84
2022-08-08T21:21:41.122Z,21.94
2022-08-08T21:24:23.484Z,21.78
2022-08-08T21:26:54.985Z,21.96
2022-08-08T21:29:23.089Z,21.57
2022-08-08T21:32:19.194Z,21.27
2022-08-08T21:34:56.921Z,21.10
2022-08-08T21:37:54.059Z,20.99
2022-08-08T21:40:31.264Z,21.23
2022-08-08T21:42:58.775Z,21.03
2022-08-08T21:47:59.658Z,20.99
2022-08-08T21:48:22.154Z,20.90
2022-08-08T21:50:58.180Z,21.10
2022-08-08T21:54:36.378Z,21.04
2022-08-08T21:56:25.924Z,20.82
2022-08-08T21:58:59.870Z,20.89
2022-08-08T22:01:40.539Z,21.06
2022-08-08T22:04:11.409Z,21.41
2022-08-08T22:06:40.558Z,21.29
2022-08-08T22:09:09.035Z,21.14
2022-08-08T22:12:02.492Z,21.32
2022-08-08T22:14:26.794Z,20.91
2022-08-08T22:16:56.181Z,20.89
2022-08-08T22:19:24.135Z,20.54
2022-08-08T22:21:52.898Z,20.62
2022-08-08T22:24:28.238Z,20.36
2022-08-08T22:27:02.523Z,20.57
2022-08-08T22:30:01.358Z,20.84
2022-08-08T22:32:19.381Z,20.49
2022-08-08T22:34:50.939Z,20.38
2022-08-08T22:37:49.154Z,20.58
2022-08-08T22:40:11.735Z,20.73
2022-08-08T22:42:40.123Z,21.02
2022-08-08T22:45:12.520Z,20.57
2022-08-08T22:47:41.314Z,20.33
2022-08-08T22:50:26.112Z,20.08
2022-08-08T22:54:30.809Z,20.37
2022-08-08T22:55:58.064Z,20.23
2022-08-08T22:58:33.886Z,20.49
2022-08-08T23:02:01.266Z,20.17
2022-08-08T23:03:56.306Z,20.03
2022-08-08T23:06:26.629Z,20.27
2022-08-08T23:08:58.684Z,20.15
2022-08-08T23:11:58.099Z,20.24
2022-08-08T23:14:17.416Z,20.09
2022-08-08T23:16:48.096Z,19.80
2022-08-08T23:19:21.295Z,19.81
2022-08-08T23:21:48.827Z,19.77
2022-08-08T23:24:22.402Z,19.95
2022-08-08T23:26:55.775Z,20.10
2022-08-08T23:29:29.805Z,20.06
2022-08-08T23:31:58.000Z,20.08
2022-08-08T23:34:24.584Z,20.09
2022-08-08T23:36:56.831Z,20.33
2022-08-08T23:39:32.146Z,20.13
2022-08-08T23:42:08.794Z,20.20
2022-08-08T23:44:39.461Z,20.40
2022-08-08T23:49:03.890Z,20.47
2022-08-08T23:50:03.161Z,20.21
2022-08-08T23:52:32.444Z,19.87
2022-08-08T23:55:07.380Z,20.31
2022-08-08T23:57:52.113Z,20.23
